createdAt,value
2019-02-01T00:01:52.451Z,99089.97
2019-02-01T00:04:20.391Z,99085.75
2019-02-01T00:06:48.201Z,99079.41
2019-02-01T00:09:16.029Z,99070.05
2019-02-01T00:11:43.963Z,99071.27
2019-02-01T00:14:11.789Z,99066.05
2019-02-01T00:16:39.697Z,99067.53
2019-02-01T00:19:07.615Z,99061.06
2019-02-01T00:21:35.470Z,99061.56
2019-02-01T00:24:04.195Z,99045.40
2019-02-01T00:26:32.154Z,99042.72
2019-02-01T00:29:00.020Z,99035.82
2019-02-01T00:31:27.923Z,99023.74
2019-02-01T00:33:55.778Z,99025.92
2019-02-01T00:36:26.098Z,99030.67
2019-02-01T00:38:53.611Z,99023.53
2019-02-01T00:41:21.546Z,99023.14
2019-02-01T00:43:49.814Z,99023.06
2019-02-01T00:46:17.634Z,99013.16
2019-02-01T00:48:45.592Z,99001.53
2019-02-01T00:51:13.490Z,99000.11
2019-02-01T00:53:41.340Z,99002.94
2019-02-01T00:56:09.301Z,99002.94
2019-02-01T00:58:37.138Z,99000.47
2019-02-01T01:01:05.494Z,99004.98
2019-02-01T01:03:33.447Z,99001.11
2019-02-01T01:06:01.230Z,98998.83
2019-02-01T01:08:29.171Z,98993.56
2019-02-01T01:10:57.146Z,98988.73
2019-02-01T01:13:27.658Z,98993.52
2019-02-01T01:15:55.456Z,98987.44
2019-02-01T01:18:24.371Z,98990.02
2019-02-01T01:20:52.372Z,98992.30
2019-02-01T01:23:20.341Z,98992.77
2019-02-01T01:25:48.358Z,98989.03
2019-02-01T01:28:16.396Z,98990.03
2019-02-01T01:30:44.683Z,98989.91
2019-02-01T01:33:13.817Z,98989.02
2019-02-01T01:35:42.243Z,98994.45
2019-02-01T01:38:10.681Z,98989.89
2019-02-01T01:40:38.991Z,98988.67
2019-02-01T01:43:07.734Z,98994.00
2019-02-01T01:45:36.219Z,98988.63
2019-02-01T01:48:05.705Z,98995.21
2019-02-01T01:50:33.849Z,98986.45
2019-02-01T01:53:02.366Z,98985.24
2019-02-01T01:55:30.557Z,98985.64
2019-02-01T01:57:58.726Z,98979.70
2019-02-01T02:00:31.660Z,98971.29
2019-02-01T02:02:59.763Z,98962.52
2019-02-01T02:05:28.624Z,98971.37
2019-02-01T02:07:57.882Z,98971.52
2019-02-01T02:10:28.917Z,98960.61
2019-02-01T02:12:57.500Z,98955.90
2019-02-01T02:15:25.940Z,98948.24
2019-02-01T02:17:55.229Z,98949.94
2019-02-01T02:20:25.772Z,98944.81
2019-02-01T02:22:54.491Z,98943.04
2019-02-01T02:25:23.742Z,98936.77
2019-02-01T02:27:52.102Z,98933.02
2019-02-01T02:30:22.930Z,98928.84
2019-02-01T02:32:51.085Z,98930.67
2019-02-01T02:35:18.981Z,98927.08
2019-02-01T02:37:46.975Z,98921.19
2019-02-01T02:40:18.251Z,98914.59
2019-02-01T02:42:46.502Z,98920.95
2019-02-01T02:45:15.191Z,98917.48
2019-02-01T02:47:43.334Z,98916.07
2019-02-01T02:50:15.375Z,98906.77
2019-02-01T02:52:43.414Z,98903.95
2019-02-01T02:55:13.499Z,98898.68
2019-02-01T02:57:41.593Z,98905.52
2019-02-01T03:00:22.572Z,98898.73
2019-02-01T03:02:50.920Z,98888.53
2019-02-01T03:05:19.890Z,98892.16
2019-02-01T03:07:48.273Z,98904.23
2019-02-01T03:10:16.303Z,98894.55
2019-02-01T03:12:44.327Z,98893.57
2019-02-01T03:15:15.324Z,98893.11
2019-02-01T03:17:43.471Z,98887.91
2019-02-01T03:20:15.477Z,98892.95
2019-02-01T03:22:43.485Z,98887.95
2019-02-01T03:25:11.651Z,98885.22
2019-02-01T03:27:39.866Z,98890.84
2019-02-01T03:30:13.088Z,98894.80
2019-02-01T03:32:41.303Z,98888.20
2019-02-01T03:35:09.445Z,98889.88
2019-02-01T03:37:37.374Z,98884.48
2019-02-01T03:40:05.751Z,98882.80
2019-02-01T03:42:33.792Z,98878.20
2019-02-01T03:45:01.953Z,98874.52
2019-02-01T03:47:30.007Z,98865.70
2019-02-01T03:49:57.902Z,98866.40
2019-02-01T03:52:25.707Z,98867.38
2019-02-01T03:54:53.482Z,98871.83
2019-02-01T03:57:21.400Z,98861.52
2019-02-01T03:59:49.174Z,98859.80
2019-02-01T04:02:17.125Z,98864.05
2019-02-01T04:04:44.985Z,98867.14
2019-02-01T04:07:12.773Z,98870.11
2019-02-01T04:09:40.727Z,98870.03
2019-02-01T04:12:08.516Z,98869.36
2019-02-01T04:14:36.302Z,98864.95
2019-02-01T04:17:04.439Z,98863.00
2019-02-01T04:19:42.699Z,98864.87
2019-02-01T04:22:03.039Z,98866.01
2019-02-01T04:24:30.985Z,98860.95
2019-02-01T04:26:58.790Z,98866.78
2019-02-01T04:29:26.727Z,98859.50
2019-02-01T04:31:54.645Z,98859.95
2019-02-01T04:34:22.594Z,98857.86
2019-02-01T04:36:50.415Z,98859.28
2019-02-01T04:39:18.349Z,98864.38
2019-02-01T04:41:46.177Z,98868.84
2019-02-01T04:44:13.976Z,98872.27
2019-02-01T04:46:41.908Z,98866.65
2019-02-01T04:49:09.831Z,98863.67
2019-02-01T04:51:37.750Z,98868.91
2019-02-01T04:54:05.655Z,98864.05
2019-02-01T04:56:33.465Z,98861.09
2019-02-01T04:59:01.431Z,98861.19
2019-02-01T05:01:29.287Z,98862.92
2019-02-01T05:03:57.314Z,98871.18
2019-02-01T05:06:25.147Z,98865.05
2019-02-01T05:08:52.928Z,98865.21
2019-02-01T05:11:21.034Z,98859.13
2019-02-01T05:13:49.057Z,98864.38
2019-02-01T05:16:16.991Z,98866.61
2019-02-01T05:18:44.845Z,98861.45
2019-02-01T05:21:12.711Z,98862.77
2019-02-01T05:23:43.798Z,98860.88
2019-02-01T05:26:11.662Z,98867.00
2019-02-01T05:28:39.594Z,98866.09
2019-02-01T05:31:07.562Z,98877.14
2019-02-01T05:33:35.386Z,98872.14
2019-02-01T05:36:03.838Z,98877.52
2019-02-01T05:38:31.726Z,98884.14
2019-02-01T05:40:59.531Z,98878.77
2019-02-01T05:43:27.448Z,98881.63
2019-02-01T05:45:55.298Z,98881.53
2019-02-01T05:48:23.479Z,98887.30
2019-02-01T05:50:51.359Z,98892.94
2019-02-01T05:53:19.324Z,98896.39
2019-02-01T05:55:47.143Z,98900.95
2019-02-01T05:58:15.081Z,98899.75
2019-02-01T06:00:43.512Z,98901.97
2019-02-01T06:03:11.921Z,98911.30
2019-02-01T06:05:40.359Z,98907.11
2019-02-01T06:08:08.296Z,98907.62
2019-02-01T06:10:37.659Z,98910.65
2019-02-01T06:13:05.499Z,98909.23
2019-02-01T06:15:33.821Z,98911.42
2019-02-01T06:18:04.037Z,98920.08
2019-02-01T06:20:40.258Z,98915.77
2019-02-01T06:23:04.288Z,98917.19
2019-02-01T06:25:32.907Z,98916.47
2019-02-01T06:28:01.736Z,98913.53
2019-02-01T06:30:30.204Z,98920.73
2019-02-01T06:32:58.488Z,98917.07
2019-02-01T06:35:26.555Z,98916.64
2019-02-01T06:37:54.813Z,98922.02
2019-02-01T06:40:31.928Z,98919.22
2019-02-01T06:43:00.534Z,98922.75
2019-02-01T06:45:28.523Z,98911.91
2019-02-01T06:47:57.028Z,98912.55
2019-02-01T06:50:36.966Z,98910.31
2019-02-01T06:53:05.404Z,98912.38
2019-02-01T06:55:33.280Z,98926.33
2019-02-01T06:58:02.193Z,98927.19
2019-02-01T07:00:34.476Z,98926.25
2019-02-01T07:03:04.914Z,98928.26
2019-02-01T07:05:35.326Z,98926.33
2019-02-01T07:08:15.669Z,98929.25
2019-02-01T07:11:01.995Z,98941.66
2019-02-01T07:13:49.819Z,98950.02
2019-02-01T07:16:36.292Z,98948.98
2019-02-01T07:19:27.660Z,98943.20
2019-02-01T07:22:08.475Z,98946.56
2019-02-01T07:24:46.250Z,98953.67
2019-02-01T07:27:24.334Z,98955.82
2019-02-01T07:30:01.245Z,98957.94
2019-02-01T07:32:51.344Z,98953.89
2019-02-01T07:35:20.174Z,98953.94
2019-02-01T07:37:48.801Z,98941.41
2019-02-01T07:40:19.585Z,98940.37
2019-02-01T07:42:47.560Z,98944.08
2019-02-01T07:45:23.958Z,98934.72
2019-02-01T07:47:51.831Z,98934.81
2019-02-01T07:50:24.131Z,98934.63
2019-02-01T07:52:51.710Z,98942.40
2019-02-01T07:55:19.787Z,98943.17
2019-02-01T07:57:51.710Z,98947.98
2019-02-01T08:00:20.738Z,98951.39
2019-02-01T08:02:49.884Z,98957.04
2019-02-01T08:05:19.725Z,98961.12
2019-02-01T08:07:48.891Z,98963.75
2019-02-01T08:10:16.762Z,98978.73
2019-02-01T08:12:44.760Z,98964.65
2019-02-01T08:15:18.308Z,98969.61
2019-02-01T08:17:46.420Z,98974.56
2019-02-01T08:20:14.391Z,98983.39
2019-02-01T08:22:43.389Z,98984.97
2019-02-01T08:25:11.791Z,98986.62
2019-02-01T08:27:39.815Z,98990.01
2019-02-01T08:30:14.092Z,98982.46
2019-02-01T08:32:43.214Z,98978.70
2019-02-01T08:35:13.071Z,98977.58
2019-02-01T08:37:41.873Z,98969.31
2019-02-01T08:40:12.293Z,98977.32
2019-02-01T08:42:40.643Z,98977.32
2019-02-01T08:45:12.117Z,98982.20
2019-02-01T08:47:41.221Z,98986.05
2019-02-01T08:50:12.327Z,98994.14
2019-02-01T08:52:40.649Z,98991.75
2019-02-01T08:55:09.773Z,99001.22
2019-02-01T08:57:37.729Z,98995.84
2019-02-01T09:00:14.714Z,99001.13
2019-02-01T09:02:44.834Z,99005.45
2019-02-01T09:05:12.654Z,99008.80
2019-02-01T09:07:40.937Z,99013.42
2019-02-01T09:10:09.969Z,99013.19
2019-02-01T09:12:37.804Z,99009.48
2019-02-01T09:15:08.112Z,99006.71
2019-02-01T09:17:36.038Z,99002.47
2019-02-01T09:20:06.024Z,99000.45
2019-02-01T09:22:33.874Z,98994.45
2019-02-01T09:25:01.973Z,98997.15
2019-02-01T09:27:29.924Z,99001.38
2019-02-01T09:30:00.327Z,99006.41
2019-02-01T09:32:28.881Z,99000.85
2019-02-01T09:34:57.148Z,98996.67
2019-02-01T09:37:26.338Z,98997.79
2019-02-01T09:39:55.788Z,99000.19
2019-02-01T09:42:24.778Z,98998.98
2019-02-01T09:44:54.513Z,99004.84
2019-02-01T09:47:26.607Z,98999.98
2019-02-01T09:49:56.916Z,99003.63
2019-02-01T09:52:25.657Z,99001.03
2019-02-01T09:54:53.676Z,99006.03
2019-02-01T09:57:22.329Z,99007.42
2019-02-01T09:59:52.735Z,99012.80
2019-02-01T10:02:21.894Z,99016.06
2019-02-01T10:04:50.241Z,99014.69
2019-02-01T10:07:18.263Z,99022.37
2019-02-01T10:09:48.997Z,99019.40
2019-02-01T10:12:17.053Z,99018.86
2019-02-01T10:14:44.979Z,99026.83
2019-02-01T10:17:13.384Z,99025.82
2019-02-01T10:19:41.458Z,99023.04
2019-02-01T10:22:13.789Z,99034.61
2019-02-01T10:24:40.120Z,99038.69
2019-02-01T10:27:08.101Z,99037.20
2019-02-01T10:29:36.142Z,99038.82
2019-02-01T10:32:04.767Z,99039.02
2019-02-01T10:34:33.101Z,99043.16
2019-02-01T10:37:02.159Z,99042.05
2019-02-01T10:39:30.206Z,99048.81
2019-02-01T10:42:03.702Z,99042.14
2019-02-01T10:44:28.639Z,99043.72
2019-02-01T10:47:03.936Z,99044.38
2019-02-01T10:49:27.099Z,99043.08
2019-02-01T10:51:55.384Z,99050.79
2019-02-01T10:54:23.410Z,99048.64
2019-02-01T10:56:51.400Z,99045.79
2019-02-01T10:59:20.561Z,99051.80
2019-02-01T11:01:48.592Z,99059.40
2019-02-01T11:04:17.503Z,99056.08
2019-02-01T11:06:45.422Z,99056.91
2019-02-01T11:09:13.962Z,99057.00
2019-02-01T11:11:42.049Z,99062.72
2019-02-01T11:14:10.385Z,99064.77
2019-02-01T11:16:40.992Z,99063.19
2019-02-01T11:19:08.991Z,99067.20
2019-02-01T11:21:36.807Z,99072.47
2019-02-01T11:24:15.086Z,99065.41
2019-02-01T11:26:34.726Z,99068.38
2019-02-01T11:29:02.777Z,99067.75
2019-02-01T11:31:33.913Z,99073.47
2019-02-01T11:34:04.079Z,99073.48
2019-02-01T11:36:33.455Z,99076.55
2019-02-01T11:39:04.439Z,99072.94
2019-02-01T11:41:33.635Z,99070.52
2019-02-01T11:44:01.696Z,99068.38
2019-02-01T11:46:31.319Z,99072.25
2019-02-01T11:48:59.396Z,99071.50
2019-02-01T11:51:27.650Z,99070.84
2019-02-01T11:53:55.513Z,99072.07
2019-02-01T11:56:25.627Z,99066.70
2019-02-01T11:58:53.883Z,99070.30
2019-02-01T12:01:21.881Z,99064.94
2019-02-01T12:03:49.858Z,99065.38
2019-02-01T12:06:23.516Z,99059.74
2019-02-01T12:08:53.669Z,99065.28
2019-02-01T12:11:21.718Z,99063.44
2019-02-01T12:13:49.784Z,99057.05
2019-02-01T12:16:18.337Z,99051.20
2019-02-01T12:19:07.301Z,99052.70
2019-02-01T12:21:57.963Z,99058.00
2019-02-01T12:24:34.493Z,99056.95
2019-02-01T12:27:10.776Z,99048.98
2019-02-01T12:29:48.895Z,99051.55
2019-02-01T12:32:34.970Z,99051.63
2019-02-01T12:35:10.718Z,99050.75
2019-02-01T12:37:57.871Z,99047.98
2019-02-01T12:40:32.927Z,99047.13
2019-02-01T12:43:04.172Z,99055.37
2019-02-01T12:45:39.490Z,99061.38
2019-02-01T12:48:21.792Z,99061.55
2019-02-01T12:51:00.856Z,99059.98
2019-02-01T12:53:39.416Z,99066.16
2019-02-01T12:56:08.728Z,99058.89
2019-02-01T12:58:37.514Z,99066.20
2019-02-01T13:01:09.105Z,99066.75
2019-02-01T13:03:37.671Z,99066.20
2019-02-01T13:06:08.878Z,99068.54
2019-02-01T13:08:39.366Z,99067.51
2019-02-01T13:11:08.891Z,99063.23
2019-02-01T13:13:37.836Z,99064.52
2019-02-01T13:16:08.009Z,99057.92
2019-02-01T13:18:38.685Z,99060.46
2019-02-01T13:21:08.496Z,99051.84
2019-02-01T13:23:39.128Z,99062.85
2019-02-01T13:26:07.183Z,99065.88
2019-02-01T13:28:35.487Z,99060.73
2019-02-01T13:31:05.077Z,99064.20
2019-02-01T13:33:34.238Z,99057.48
2019-02-01T13:36:02.533Z,99056.72
2019-02-01T13:38:32.715Z,99058.03
2019-02-01T13:41:01.887Z,99056.19
2019-02-01T13:43:29.931Z,99061.01
2019-02-01T13:46:01.172Z,99062.53
2019-02-01T13:48:30.647Z,99064.73
2019-02-01T13:50:58.688Z,99065.61
2019-02-01T13:53:34.706Z,99072.28
2019-02-01T13:56:01.239Z,99070.45
2019-02-01T13:58:30.578Z,99079.21
2019-02-01T14:00:59.653Z,99079.59
2019-02-01T14:03:28.222Z,99078.84
2019-02-01T14:05:56.804Z,99079.87
2019-02-01T14:08:27.518Z,99088.98
2019-02-01T14:10:59.543Z,99085.23
2019-02-01T14:13:28.432Z,99089.56
2019-02-01T14:15:57.021Z,99090.92
2019-02-01T14:18:24.889Z,99086.63
2019-02-01T14:20:56.225Z,99088.91
2019-02-01T14:23:48.985Z,99093.58
2019-02-01T14:26:17.566Z,99098.94
2019-02-01T14:28:46.115Z,99103.45
2019-02-01T14:31:15.705Z,99108.58
2019-02-01T14:33:45.128Z,99104.14
2019-02-01T14:36:14.338Z,99107.70
2019-02-01T14:38:53.518Z,99106.56
2019-02-01T14:41:23.531Z,99109.27
2019-02-01T14:43:53.205Z,99107.97
2019-02-01T14:46:23.882Z,99101.63
2019-02-01T14:48:52.041Z,99109.72
2019-02-01T14:51:21.151Z,99106.40
2019-02-01T14:53:58.557Z,99103.34
2019-02-01T14:56:24.033Z,99106.13
2019-02-01T14:58:51.872Z,99099.89
2019-02-01T15:01:21.781Z,99104.23
2019-02-01T15:03:52.393Z,99108.53
2019-02-01T15:06:21.220Z,99103.05
2019-02-01T15:08:50.533Z,99099.47
2019-02-01T15:11:20.115Z,99099.73
2019-02-01T15:13:48.124Z,99093.70
2019-02-01T15:16:31.284Z,99094.90
2019-02-01T15:18:47.620Z,99090.41
2019-02-01T15:21:16.000Z,99088.50
2019-02-01T15:23:48.582Z,99093.33
2019-02-01T15:26:18.848Z,99094.16
2019-02-01T15:28:46.960Z,99089.64
2019-02-01T15:31:17.124Z,99088.95
2019-02-01T15:33:50.621Z,99097.53
2019-02-01T15:36:19.475Z,99099.98
2019-02-01T15:38:47.897Z,99106.00
2019-02-01T15:41:17.420Z,99109.62
2019-02-01T15:43:47.322Z,99106.53
2019-02-01T15:46:17.646Z,99109.89
2019-02-01T15:48:45.996Z,99111.91
2019-02-01T15:51:14.013Z,99109.23
2019-02-01T15:53:44.439Z,99102.14
2019-02-01T15:56:13.557Z,99100.67
2019-02-01T15:58:46.984Z,99112.53
2019-02-01T16:01:17.510Z,99107.06
2019-02-01T16:03:49.198Z,99107.34
2019-02-01T16:06:17.896Z,99104.23
2019-02-01T16:08:48.110Z,99105.26
2019-02-01T16:11:20.017Z,99104.13
2019-02-01T16:13:48.878Z,99106.91
2019-02-01T16:16:17.272Z,99110.36
2019-02-01T16:18:45.657Z,99107.59
2019-02-01T16:21:16.777Z,99107.01
2019-02-01T16:23:44.845Z,99111.32
2019-02-01T16:26:14.235Z,99105.64
2019-02-01T16:28:46.179Z,99110.80
2019-02-01T16:31:17.451Z,99112.95
2019-02-01T16:33:48.242Z,99109.53
2019-02-01T16:36:15.980Z,99111.78
2019-02-01T16:38:45.323Z,99105.48
2019-02-01T16:41:14.345Z,99104.34
2019-02-01T16:43:44.198Z,99114.55
2019-02-01T16:46:12.918Z,99108.71
2019-02-01T16:48:41.460Z,99111.83
2019-02-01T16:51:11.391Z,99113.26
2019-02-01T16:53:40.566Z,99125.70
2019-02-01T16:56:08.843Z,99115.13
2019-02-01T16:58:37.329Z,99126.63
2019-02-01T17:01:07.609Z,99131.72
2019-02-01T17:03:35.856Z,99134.30
2019-02-01T17:06:05.266Z,99137.81
2019-02-01T17:08:33.231Z,99138.49
2019-02-01T17:11:03.513Z,99138.05
2019-02-01T17:13:31.580Z,99141.77
2019-02-01T17:16:00.960Z,99141.96
2019-02-01T17:18:29.457Z,99138.88
2019-02-01T17:20:57.954Z,99137.03
2019-02-01T17:23:26.503Z,99142.61
2019-02-01T17:25:56.650Z,99141.03
2019-02-01T17:28:24.983Z,99149.56
2019-02-01T17:30:53.249Z,99145.50
2019-02-01T17:33:21.318Z,99152.90
2019-02-01T17:35:49.650Z,99157.02
2019-02-01T17:38:17.958Z,99157.19
2019-02-01T17:40:47.605Z,99162.75
2019-02-01T17:43:15.921Z,99169.77
2019-02-01T17:45:44.253Z,99162.34
2019-02-01T17:48:12.925Z,99171.00
2019-02-01T17:50:43.783Z,99169.50
2019-02-01T17:53:13.044Z,99170.80
2019-02-01T17:55:41.664Z,99172.77
2019-02-01T17:58:10.077Z,99175.63
2019-02-01T18:01:07.108Z,99179.80
2019-02-01T18:03:38.307Z,99195.50
2019-02-01T18:06:06.861Z,99187.97
2019-02-01T18:08:35.035Z,99185.09
2019-02-01T18:11:03.825Z,99188.43
2019-02-01T18:13:34.327Z,99188.91
2019-02-01T18:16:04.334Z,99193.73
2019-02-01T18:18:37.357Z,99190.30
2019-02-01T18:21:06.620Z,99196.23
2019-02-01T18:23:34.591Z,99205.71
2019-02-01T18:26:03.351Z,99206.53
2019-02-01T18:28:31.589Z,99213.12
2019-02-01T18:31:00.076Z,99218.69
2019-02-01T18:33:28.468Z,99218.30
2019-02-01T18:35:56.471Z,99223.13
2019-02-01T18:38:24.735Z,99220.84
2019-02-01T18:40:52.849Z,99230.45
2019-02-01T18:43:20.752Z,99232.04
2019-02-01T18:45:48.873Z,99233.91
2019-02-01T18:48:18.215Z,99238.81
2019-02-01T18:50:47.062Z,99247.19
2019-02-01T18:53:15.157Z,99249.66
2019-02-01T18:55:43.057Z,99248.20
2019-02-01T18:58:11.977Z,99245.58
2019-02-01T19:00:51.590Z,99248.17
2019-02-01T19:03:10.652Z,99258.41
2019-02-01T19:05:40.796Z,99261.19
2019-02-01T19:08:10.212Z,99267.22
2019-02-01T19:10:44.853Z,99272.60
2019-02-01T19:13:13.945Z,99263.79
2019-02-01T19:15:41.842Z,99261.36
2019-02-01T19:18:10.168Z,99257.14
2019-02-01T19:20:38.126Z,99259.98
2019-02-01T19:23:06.190Z,99263.16
2019-02-01T19:25:44.495Z,99259.65
2019-02-01T19:28:06.129Z,99260.92
2019-02-01T19:30:43.644Z,99258.23
2019-02-01T19:33:11.584Z,99265.16
2019-02-01T19:35:40.534Z,99271.51
2019-02-01T19:38:15.071Z,99278.81
2019-02-01T19:40:43.692Z,99281.89
2019-02-01T19:43:11.733Z,99283.48
2019-02-01T19:45:39.753Z,99284.78
2019-02-01T19:48:10.007Z,99289.06
2019-02-01T19:50:38.021Z,99289.34
2019-02-01T19:53:06.223Z,99283.87
2019-02-01T19:55:37.867Z,99289.45
2019-02-01T19:58:06.351Z,99291.13
2019-02-01T20:00:34.332Z,99293.16
2019-02-01T20:03:02.369Z,99288.98
2019-02-01T20:05:30.651Z,99290.46
2019-02-01T20:07:58.749Z,99291.88
2019-02-01T20:10:28.240Z,99296.31
2019-02-01T20:12:56.313Z,99285.69
2019-02-01T20:15:24.364Z,99295.57
2019-02-01T20:17:52.232Z,99302.47
2019-02-01T20:20:24.149Z,99293.88
2019-02-01T20:22:55.776Z,99293.59
2019-02-01T20:25:26.033Z,99298.29
2019-02-01T20:27:57.433Z,99292.30
2019-02-01T20:30:28.835Z,99289.79
2019-02-01T20:32:57.113Z,99291.62
2019-02-01T20:35:25.251Z,99289.11
2019-02-01T20:37:53.177Z,99289.01
2019-02-01T20:40:33.235Z,99292.00
2019-02-01T20:43:01.219Z,99292.11
2019-02-01T20:45:29.145Z,99289.23
2019-02-01T20:47:57.204Z,99294.17
2019-02-01T20:50:25.187Z,99293.39
2019-02-01T20:52:53.150Z,99264.18
2019-02-01T20:55:22.794Z,99293.98
2019-02-01T20:57:51.062Z,99290.59
2019-02-01T21:00:24.163Z,99300.75
2019-02-01T21:02:54.412Z,99302.97
2019-02-01T21:05:25.532Z,99310.72
2019-02-01T21:07:53.490Z,99308.27
2019-02-01T21:10:21.827Z,99300.59
2019-02-01T21:12:49.919Z,99303.37
2019-02-01T21:15:20.714Z,99303.39
2019-02-01T21:17:48.753Z,99306.56
2019-02-01T21:20:18.928Z,99311.75
2019-02-01T21:22:46.890Z,99301.34
2019-02-01T21:25:19.015Z,99295.25
2019-02-01T21:27:49.426Z,99306.89
2019-02-01T21:30:32.735Z,99301.05
2019-02-01T21:33:00.843Z,99302.88
2019-02-01T21:35:31.667Z,99303.20
2019-02-01T21:38:00.105Z,99308.63
2019-02-01T21:40:28.541Z,99308.42
2019-02-01T21:42:56.760Z,99307.30
2019-02-01T21:45:25.525Z,99304.38
2019-02-01T21:47:55.986Z,99306.38
2019-02-01T21:50:27.196Z,99298.86
2019-02-01T21:52:55.292Z,99299.34
2019-02-01T21:55:23.400Z,99293.66
2019-02-01T21:57:51.388Z,99296.61
2019-02-01T22:00:22.723Z,99295.52
2019-02-01T22:02:50.747Z,99295.36
2019-02-01T22:05:18.851Z,99307.80
2019-02-01T22:07:46.935Z,99304.48
2019-02-01T22:10:21.193Z,99303.75
2019-02-01T22:12:49.235Z,99301.89
2019-02-01T22:15:18.085Z,99305.36
2019-02-01T22:17:46.118Z,99316.48
2019-02-01T22:20:17.207Z,99323.93
2019-02-01T22:22:45.206Z,99318.92
2019-02-01T22:25:13.832Z,99333.03
2019-02-01T22:27:41.957Z,99331.94
2019-02-01T22:30:23.407Z,99330.33
2019-02-01T22:32:51.426Z,99337.58
2019-02-01T22:35:19.645Z,99338.19
2019-02-01T22:37:47.773Z,99338.83
2019-02-01T22:40:19.115Z,99345.48
2019-02-01T22:42:47.062Z,99345.02
2019-02-01T22:45:15.235Z,99352.56
2019-02-01T22:47:43.170Z,99365.09
2019-02-01T22:50:18.518Z,99361.05
2019-02-01T22:52:46.603Z,99367.53
2019-02-01T22:55:14.652Z,99369.66
2019-02-01T22:57:42.649Z,99371.86
2019-02-01T23:01:01.973Z,99376.27
2019-02-01T23:04:02.725Z,99382.86
2019-02-01T23:06:30.788Z,99388.72
2019-02-01T23:08:58.928Z,99385.22
2019-02-01T23:11:26.954Z,99390.91
2019-02-01T23:13:55.107Z,99393.38
2019-02-01T23:16:22.999Z,99396.63
2019-02-01T23:18:50.980Z,99396.56
2019-02-01T23:21:18.841Z,99393.12
2019-02-01T23:23:46.861Z,99396.69
2019-02-01T23:26:14.942Z,99393.63
2019-02-01T23:28:42.809Z,99399.61
2019-02-01T23:31:10.821Z,99395.91
2019-02-01T23:33:38.771Z,99399.89
2019-02-01T23:36:07.236Z,99405.89
2019-02-01T23:38:35.239Z,99401.00
2019-02-01T23:41:04.137Z,99404.80
2019-02-01T23:43:32.082Z,99403.68
2019-02-01T23:46:00.088Z,99406.89
2019-02-01T23:48:28.247Z,99399.16
2019-02-01T23:50:56.247Z,99396.70
2019-02-01T23:53:24.345Z,99401.00
2019-02-01T23:55:52.327Z,99405.23
2019-02-01T23:58:20.488Z,99414.56
